createdAt,value
2022-10-11T00:01:17.851Z,32.47
2022-10-11T00:03:44.420Z,29.88
2022-10-11T00:06:10.983Z,25.73
2022-10-11T00:08:37.488Z,27.42
2022-10-11T00:11:06.750Z,28.75
2022-10-11T00:13:33.923Z,28.98
2022-10-11T00:16:00.453Z,28.48
2022-10-11T00:18:27.298Z,26.30
2022-10-11T00:21:05.614Z,31.63
2022-10-11T00:23:32.595Z,26.50
2022-10-11T00:26:05.935Z,28.63
2022-10-11T00:28:33.336Z,27.53
2022-10-11T00:30:59.906Z,29.83
2022-10-11T00:33:26.456Z,27.73
2022-10-11T00:35:53.087Z,25.52
2022-10-11T00:38:19.633Z,26.45
2022-10-11T00:40:46.145Z,28.70
2022-10-11T00:43:18.350Z,35.55
2022-10-11T00:45:56.872Z,29.33
2022-10-11T00:48:29.255Z,31.02
2022-10-11T00:50:59.392Z,29.05
2022-10-11T00:53:27.990Z,31.58
2022-10-11T00:56:04.509Z,29.05
2022-10-11T00:58:33.992Z,31.88
2022-10-11T01:01:00.847Z,33.47
2022-10-11T01:03:30.502Z,29.05
2022-10-11T01:05:57.379Z,28.95
2022-10-11T01:08:26.932Z,29.73
2022-10-11T01:10:53.657Z,28.35
2022-10-11T01:13:36.810Z,28.52
2022-10-11T01:16:09.355Z,31.85
2022-10-11T01:19:30.022Z,30.63
2022-10-11T01:22:27.631Z,30.13
2022-10-11T01:25:13.331Z,30.92
2022-10-11T01:28:07.249Z,32.42
2022-10-11T01:30:36.605Z,29.67
2022-10-11T01:33:11.967Z,35.15
2022-10-11T01:35:49.391Z,30.90
2022-10-11T01:38:30.184Z,31.45
2022-10-11T01:41:02.245Z,35.40
2022-10-11T01:43:29.665Z,30.63
2022-10-11T01:45:58.103Z,31.77
2022-10-11T01:48:25.364Z,30.40
2022-10-11T01:50:55.471Z,30.85
2022-10-11T01:54:04.539Z,34.40
2022-10-11T01:57:18.339Z,29.52
2022-10-11T02:00:14.884Z,29.77
2022-10-11T02:03:05.953Z,31.38
2022-10-11T02:06:10.101Z,33.28
2022-10-11T02:08:42.668Z,33.05
2022-10-11T02:11:30.880Z,31.95
2022-10-11T02:14:02.989Z,29.00
2022-10-11T02:16:44.660Z,29.75
2022-10-11T02:19:14.324Z,34.15
2022-10-11T02:21:45.032Z,32.78
2022-10-11T02:24:25.031Z,30.98
2022-10-11T02:26:54.290Z,30.95
2022-10-11T02:29:24.509Z,34.83
2022-10-11T02:31:51.856Z,31.20
2022-10-11T02:34:52.204Z,37.20
2022-10-11T02:37:37.616Z,33.78
2022-10-11T02:40:11.662Z,31.10
2022-10-11T02:42:45.543Z,28.90
2022-10-11T02:45:17.245Z,35.78
2022-10-11T02:47:44.656Z,29.55
2022-10-11T02:50:12.961Z,29.80
2022-10-11T02:52:39.913Z,32.03
2022-10-11T02:55:07.471Z,30.70
2022-10-11T02:57:34.175Z,32.35
2022-10-11T03:00:00.671Z,31.02
2022-10-11T03:02:29.957Z,29.17
2022-10-11T03:04:56.509Z,31.08
2022-10-11T03:07:25.965Z,29.77
2022-10-11T03:09:52.505Z,31.55
2022-10-11T03:12:19.010Z,34.83
2022-10-11T03:14:45.811Z,29.92
2022-10-11T03:17:35.198Z,31.75
2022-10-11T03:19:58.991Z,28.67
2022-10-11T03:22:25.576Z,28.85
2022-10-11T03:24:53.568Z,31.95
2022-10-11T03:27:20.069Z,29.92
2022-10-11T03:29:46.566Z,33.60
2022-10-11T03:32:13.093Z,29.38
2022-10-11T03:34:39.595Z,31.52
2022-10-11T03:37:06.093Z,31.90
2022-10-11T03:39:32.733Z,32.40
2022-10-11T03:41:59.275Z,29.40
2022-10-11T03:44:26.982Z,31.50
2022-10-11T03:46:54.866Z,33.90
2022-10-11T03:49:21.378Z,30.58
2022-10-11T03:51:47.889Z,30.38
2022-10-11T03:54:14.422Z,29.08
2022-10-11T03:56:40.922Z,28.83
2022-10-11T03:59:07.418Z,31.38
2022-10-11T04:01:33.966Z,30.17
2022-10-11T04:04:03.527Z,37.25
2022-10-11T04:06:32.412Z,35.55
2022-10-11T04:08:58.979Z,31.30
2022-10-11T04:11:26.406Z,32.58
2022-10-11T04:13:54.756Z,31.30
2022-10-11T04:16:21.557Z,33.63
2022-10-11T04:18:56.922Z,32.20
2022-10-11T04:21:24.005Z,29.88
2022-10-11T04:23:52.358Z,29.30
2022-10-11T04:26:23.685Z,26.83
2022-10-11T04:28:50.241Z,33.83
2022-10-11T04:31:22.502Z,34.15
2022-10-11T04:33:49.518Z,30.27
2022-10-11T04:36:19.467Z,27.90
2022-10-11T04:38:46.027Z,29.13
2022-10-11T04:41:14.373Z,31.02
2022-10-11T04:43:43.659Z,29.95
2022-10-11T04:46:12.608Z,28.58
2022-10-11T04:48:39.369Z,30.13
2022-10-11T04:51:08.741Z,33.17
2022-10-11T04:53:35.283Z,30.33
2022-10-11T04:56:10.221Z,31.17
2022-10-11T04:58:41.821Z,31.65
2022-10-11T05:01:09.440Z,33.28
2022-10-11T05:03:36.350Z,31.70
2022-10-11T05:06:06.095Z,29.20
2022-10-11T05:08:33.360Z,29.23
2022-10-11T05:11:17.823Z,30.88
2022-10-11T05:13:45.758Z,28.45
2022-10-11T05:16:13.622Z,28.23
2022-10-11T05:18:41.116Z,30.13
2022-10-11T05:21:23.502Z,26.55
2022-10-11T05:23:51.495Z,27.70
2022-10-11T05:26:19.617Z,29.15
2022-10-11T05:28:50.989Z,28.40
2022-10-11T05:31:17.600Z,25.50
2022-10-11T05:33:44.516Z,28.50
2022-10-11T05:36:11.508Z,34.55
2022-10-11T05:38:39.683Z,33.47
2022-10-11T05:41:13.518Z,31.05
2022-10-11T05:43:46.360Z,30.02
2022-10-11T05:46:13.224Z,31.58
2022-10-11T05:49:00.691Z,29.38
2022-10-11T05:51:27.297Z,26.17
2022-10-11T05:53:54.085Z,25.98
2022-10-11T05:56:25.023Z,28.42
2022-10-11T05:58:52.304Z,27.35
2022-10-11T06:01:24.896Z,29.70
2022-10-11T06:03:52.064Z,26.20
2022-10-11T06:06:19.119Z,28.70
2022-10-11T06:08:46.089Z,24.00
2022-10-11T06:11:24.964Z,26.67
2022-10-11T06:13:54.618Z,25.17
2022-10-11T06:16:21.179Z,27.52
2022-10-11T06:18:47.735Z,23.10
2022-10-11T06:21:14.299Z,25.50
2022-10-11T06:23:40.827Z,24.35
2022-10-11T06:26:09.184Z,25.92
2022-10-11T06:28:36.613Z,25.23
2022-10-11T06:31:05.433Z,19.38
2022-10-11T06:33:32.668Z,21.13
2022-10-11T06:36:01.357Z,23.05
2022-10-11T06:38:28.209Z,25.48
2022-10-11T06:40:54.799Z,25.85
2022-10-11T06:43:21.380Z,27.60
2022-10-11T06:45:47.938Z,26.02
2022-10-11T06:48:14.845Z,24.15
2022-10-11T06:50:59.226Z,20.90
2022-10-11T06:53:27.775Z,27.02
2022-10-11T06:55:54.278Z,27.17
2022-10-11T06:58:20.836Z,29.23
2022-10-11T07:00:47.438Z,24.95
2022-10-11T07:03:13.978Z,23.65
2022-10-11T07:05:40.503Z,23.33
2022-10-11T07:08:07.001Z,28.00
2022-10-11T07:10:35.445Z,28.80
2022-10-11T07:13:02.018Z,26.75
2022-10-11T07:15:31.646Z,27.27
2022-10-11T07:17:58.148Z,31.00
2022-10-11T07:20:24.754Z,24.35
2022-10-11T07:22:51.363Z,24.02
2022-10-11T07:25:17.904Z,28.58
2022-10-11T07:27:44.434Z,25.98
2022-10-11T07:30:11.532Z,28.52
2022-10-11T07:32:38.053Z,26.63
2022-10-11T07:35:05.021Z,27.70
2022-10-11T07:37:31.549Z,25.67
2022-10-11T07:39:58.058Z,30.13
2022-10-11T07:42:25.972Z,25.70
2022-10-11T07:44:52.522Z,25.20
2022-10-11T07:47:19.057Z,31.30
2022-10-11T07:49:45.578Z,30.45
2022-10-11T07:52:12.133Z,27.13
2022-10-11T07:54:38.658Z,26.30
2022-10-11T07:57:05.142Z,23.95
2022-10-11T07:59:31.684Z,24.00
2022-10-11T08:01:58.285Z,28.73
2022-10-11T08:04:25.494Z,29.60
2022-10-11T08:06:53.465Z,25.85
2022-10-11T08:09:20.163Z,25.05
2022-10-11T08:11:46.654Z,25.90
2022-10-11T08:14:13.200Z,24.85
2022-10-11T08:16:39.778Z,25.00
2022-10-11T08:19:07.056Z,23.83
2022-10-11T08:21:33.734Z,26.25
2022-10-11T08:24:02.470Z,26.55
2022-10-11T08:26:29.372Z,24.00
2022-10-11T08:28:56.342Z,24.33
2022-10-11T08:31:22.889Z,27.58
2022-10-11T08:33:49.433Z,23.52
2022-10-11T08:36:15.955Z,27.08
2022-10-11T08:38:42.517Z,22.52
2022-10-11T08:41:14.907Z,22.40
2022-10-11T08:43:48.509Z,20.25
2022-10-11T08:46:15.907Z,23.90
2022-10-11T08:48:58.438Z,20.30
2022-10-11T08:51:45.830Z,26.63
2022-10-11T08:54:26.707Z,21.55
2022-10-11T08:56:53.263Z,22.92
2022-10-11T08:59:28.255Z,21.15
2022-10-11T09:02:03.373Z,24.98
2022-10-11T09:04:29.911Z,22.55
2022-10-11T09:07:07.416Z,26.13
2022-10-11T09:09:52.896Z,27.05
2022-10-11T09:12:34.271Z,24.20
2022-10-11T09:15:30.012Z,22.65
2022-10-11T09:18:38.997Z,24.08
2022-10-11T09:21:23.646Z,25.13
2022-10-11T09:24:08.694Z,25.08
2022-10-11T09:26:49.731Z,24.70
2022-10-11T09:29:21.430Z,19.23
2022-10-11T09:31:53.544Z,19.48
2022-10-11T09:34:24.288Z,21.30
2022-10-11T09:37:03.275Z,24.65
2022-10-11T09:39:35.041Z,27.52
2022-10-11T09:42:09.618Z,23.48
2022-10-11T09:44:41.136Z,22.02
2022-10-11T09:47:21.615Z,22.73
2022-10-11T09:50:05.053Z,23.38
2022-10-11T09:52:31.567Z,21.57
2022-10-11T09:55:00.543Z,25.42
2022-10-11T09:57:28.668Z,28.00
2022-10-11T10:00:21.315Z,22.60
2022-10-11T10:02:51.183Z,20.17
2022-10-11T10:05:32.375Z,19.10
2022-10-11T10:08:04.720Z,23.27
2022-10-11T10:10:43.443Z,22.52
2022-10-11T10:13:44.323Z,22.35
2022-10-11T10:16:28.699Z,22.42
2022-10-11T10:18:57.780Z,19.00
2022-10-11T10:21:43.616Z,22.17
2022-10-11T10:24:20.448Z,25.88
2022-10-11T10:27:06.520Z,27.48
2022-10-11T10:29:33.259Z,25.23
2022-10-11T10:32:14.197Z,20.05
2022-10-11T10:34:58.232Z,19.83
2022-10-11T10:37:43.930Z,24.63
2022-10-11T10:40:18.324Z,21.45
2022-10-11T10:42:44.886Z,18.45
2022-10-11T10:45:21.255Z,19.38
2022-10-11T10:48:22.008Z,24.90
2022-10-11T10:50:54.372Z,18.27
2022-10-11T10:53:23.606Z,19.65
2022-10-11T10:56:07.587Z,21.08
2022-10-11T10:59:18.303Z,20.08
2022-10-11T11:02:38.583Z,20.00
2022-10-11T11:05:03.066Z,17.88
2022-10-11T11:07:44.659Z,18.95
2022-10-11T11:10:38.903Z,18.52
2022-10-11T11:15:43.411Z,23.05
2022-10-11T11:18:18.726Z,19.58
2022-10-11T11:21:07.965Z,18.60
2022-10-11T11:23:46.346Z,16.88
2022-10-11T11:26:27.943Z,16.58
2022-10-11T11:29:03.511Z,15.05
2022-10-11T11:31:51.713Z,16.45
2022-10-11T11:34:35.244Z,17.25
2022-10-11T11:37:19.300Z,13.32
2022-10-11T11:39:49.801Z,14.65
2022-10-11T11:42:23.219Z,13.15
2022-10-11T11:44:51.741Z,13.85
2022-10-11T11:47:47.464Z,16.17
2022-10-11T11:50:19.200Z,20.75
2022-10-11T11:52:50.395Z,17.35
2022-10-11T11:55:28.328Z,14.77
2022-10-11T11:58:28.530Z,14.48
2022-10-11T12:01:05.640Z,17.02
2022-10-11T12:03:46.738Z,11.88
2022-10-11T12:06:23.770Z,15.05
2022-10-11T12:09:04.794Z,13.88
2022-10-11T12:11:41.858Z,15.05
2022-10-11T12:14:22.531Z,12.25
2022-10-11T12:17:21.294Z,11.13
2022-10-11T12:20:02.799Z,12.95
2022-10-11T12:22:29.265Z,12.20
2022-10-11T12:25:18.566Z,11.07
2022-10-11T12:27:47.587Z,14.13
2022-10-11T12:30:45.138Z,13.20
2022-10-11T12:33:16.312Z,13.73
2022-10-11T12:35:54.866Z,10.68
2022-10-11T12:38:25.827Z,8.88
2022-10-11T12:40:58.029Z,14.85
2022-10-11T12:43:30.922Z,14.52
2022-10-11T12:45:57.459Z,14.13
2022-10-11T12:48:40.787Z,13.68
2022-10-11T12:54:25.336Z,12.45
2022-10-11T12:57:36.571Z,14.30
2022-10-11T13:00:21.617Z,14.68
2022-10-11T13:02:48.843Z,11.52
2022-10-11T13:05:43.194Z,17.73
2022-10-11T13:08:22.848Z,13.32
2022-10-11T13:10:49.558Z,11.73
2022-10-11T13:13:27.014Z,13.40
2022-10-11T13:15:55.711Z,14.95
2022-10-11T13:18:24.711Z,13.52
2022-10-11T13:20:51.254Z,14.90
2022-10-11T13:23:24.617Z,14.15
2022-10-11T13:25:51.693Z,13.25
2022-10-11T13:28:19.836Z,12.98
2022-10-11T13:30:53.072Z,12.68
2022-10-11T13:33:23.386Z,13.48
2022-10-11T13:35:50.996Z,13.80
2022-10-11T13:38:33.653Z,13.52
2022-10-11T13:41:07.083Z,13.77
2022-10-11T13:46:02.717Z,15.73
2022-10-11T13:48:32.090Z,11.30
2022-10-11T13:51:29.119Z,14.10
2022-10-11T13:54:00.219Z,8.38
2022-10-11T13:56:29.535Z,12.32
2022-10-11T13:58:56.461Z,12.40
2022-10-11T14:01:51.852Z,13.88
2022-10-11T14:04:18.617Z,11.48
2022-10-11T14:06:52.351Z,12.82
2022-10-11T14:09:21.865Z,13.10
2022-10-11T14:11:48.962Z,13.40
2022-10-11T14:14:40.474Z,13.63
2022-10-11T14:17:14.548Z,12.60
2022-10-11T14:19:42.241Z,13.57
2022-10-11T14:22:17.599Z,14.90
2022-10-11T14:24:47.741Z,16.27
2022-10-11T14:27:22.449Z,13.00
2022-10-11T14:30:12.960Z,12.90
2022-10-11T14:32:35.976Z,13.50
2022-10-11T14:35:03.231Z,12.95
2022-10-11T14:37:29.813Z,14.07
2022-10-11T14:39:56.325Z,11.32
2022-10-11T14:42:23.085Z,13.40
2022-10-11T14:44:49.607Z,9.63
2022-10-11T14:47:17.615Z,11.18
2022-10-11T14:49:44.265Z,12.90
2022-10-11T14:52:13.097Z,11.07
2022-10-11T14:54:40.200Z,13.00
2022-10-11T14:57:06.767Z,13.13
2022-10-11T14:59:37.525Z,9.90
2022-10-11T15:02:06.925Z,14.73
2022-10-11T15:04:33.713Z,12.98
2022-10-11T15:07:00.274Z,12.63
2022-10-11T15:09:26.765Z,14.35
2022-10-11T15:11:54.104Z,12.75
2022-10-11T15:14:22.543Z,13.57
2022-10-11T15:16:49.391Z,11.85
2022-10-11T15:19:18.851Z,12.40
2022-10-11T15:21:45.632Z,14.35
2022-10-11T15:24:12.145Z,10.32
2022-10-11T15:26:38.690Z,13.25
2022-10-11T15:29:06.729Z,13.23
2022-10-11T15:31:33.210Z,10.48
2022-10-11T15:33:59.726Z,10.45
2022-10-11T15:36:26.281Z,12.30
2022-10-11T15:38:52.814Z,12.10
2022-10-11T15:41:19.992Z,12.70
2022-10-11T15:43:48.681Z,13.15
2022-10-11T15:46:18.288Z,13.18
2022-10-11T15:48:45.848Z,11.73
2022-10-11T15:51:12.348Z,11.82
2022-10-11T15:53:38.918Z,8.80
2022-10-11T15:56:12.238Z,11.48
2022-10-11T15:58:41.063Z,12.27
2022-10-11T16:01:16.548Z,10.57
2022-10-11T16:03:43.643Z,9.85
2022-10-11T16:06:10.826Z,16.98
2022-10-11T16:08:56.218Z,14.63
2022-10-11T16:11:22.707Z,12.75
2022-10-11T16:13:49.208Z,12.55
2022-10-11T16:16:15.882Z,14.45
2022-10-11T16:18:43.084Z,15.00
2022-10-11T16:21:11.590Z,12.02
2022-10-11T16:23:38.703Z,12.43
2022-10-11T16:26:08.830Z,15.02
2022-10-11T16:28:35.807Z,11.48
2022-10-11T16:31:14.450Z,11.13
2022-10-11T16:33:40.942Z,12.02
2022-10-11T16:36:08.355Z,15.43
2022-10-11T16:38:35.481Z,13.18
2022-10-11T16:41:05.630Z,13.27
2022-10-11T16:43:32.143Z,12.27
2022-10-11T16:45:58.650Z,15.63
2022-10-11T16:48:25.183Z,11.27
2022-10-11T16:50:51.678Z,13.13
2022-10-11T16:53:18.179Z,16.27
2022-10-11T16:55:44.685Z,12.63
2022-10-11T16:58:11.182Z,14.25
2022-10-11T17:00:37.779Z,12.27
2022-10-11T17:03:04.381Z,14.73
2022-10-11T17:05:30.910Z,12.70
2022-10-11T17:07:57.421Z,12.88
2022-10-11T17:10:23.930Z,10.25
2022-10-11T17:12:50.481Z,14.02
2022-10-11T17:15:17.039Z,13.07
2022-10-11T17:17:43.529Z,13.15
2022-10-11T17:20:10.088Z,16.48
2022-10-11T17:22:36.587Z,14.45
2022-10-11T17:25:03.119Z,11.73
2022-10-11T17:27:29.713Z,12.10
2022-10-11T17:29:58.256Z,14.73
2022-10-11T17:32:24.789Z,12.65
2022-10-11T17:34:51.401Z,11.45
2022-10-11T17:37:17.941Z,13.68
2022-10-11T17:39:44.468Z,13.85
2022-10-11T17:42:10.967Z,12.55
2022-10-11T17:44:38.522Z,15.30
2022-10-11T17:47:05.090Z,14.45
2022-10-11T17:49:31.727Z,19.08
2022-10-11T17:51:58.243Z,16.55
2022-10-11T17:54:25.826Z,16.17
2022-10-11T17:56:52.387Z,12.50
2022-10-11T17:59:20.414Z,16.15
2022-10-11T18:01:47.734Z,11.65
2022-10-11T18:04:14.296Z,12.80
2022-10-11T18:06:40.822Z,17.35
2022-10-11T18:09:07.430Z,14.27
2022-10-11T18:11:34.214Z,14.32
2022-10-11T18:14:00.897Z,13.95
2022-10-11T18:16:29.474Z,16.15
2022-10-11T18:18:56.645Z,15.00
2022-10-11T18:21:26.771Z,16.80
2022-10-11T18:23:55.266Z,20.50
2022-10-11T18:26:27.983Z,14.55
2022-10-11T18:28:56.085Z,17.70
2022-10-11T18:31:25.837Z,14.07
2022-10-11T18:33:53.546Z,17.42
2022-10-11T18:36:23.374Z,21.23
2022-10-11T18:38:54.443Z,20.65
2022-10-11T18:41:22.373Z,19.27
2022-10-11T18:43:54.255Z,17.52
2022-10-11T18:46:22.060Z,16.73
2022-10-11T18:48:50.748Z,22.42
2022-10-11T18:51:25.595Z,18.38
2022-10-11T18:53:53.100Z,17.13
2022-10-11T18:56:21.761Z,17.10
2022-10-11T18:58:49.456Z,16.52
2022-10-11T19:01:28.541Z,19.60
2022-10-11T19:03:57.365Z,18.45
2022-10-11T19:06:26.839Z,18.13
2022-10-11T19:09:01.063Z,22.10
2022-10-11T19:11:27.694Z,18.67
2022-10-11T19:14:01.370Z,17.83
2022-10-11T19:16:30.708Z,18.45
2022-10-11T19:18:57.869Z,15.15
2022-10-11T19:21:24.678Z,17.88
2022-10-11T19:23:52.115Z,19.15
2022-10-11T19:26:28.207Z,21.85
2022-10-11T19:28:57.677Z,14.35
2022-10-11T19:31:24.622Z,19.15
2022-10-11T19:33:51.206Z,17.38
2022-10-11T19:36:18.113Z,20.70
2022-10-11T19:38:50.567Z,14.80
2022-10-11T19:41:20.326Z,17.65
2022-10-11T19:43:47.039Z,13.23
2022-10-11T19:46:20.334Z,11.93
2022-10-11T19:48:54.643Z,17.35
2022-10-11T19:51:25.824Z,17.30
2022-10-11T19:54:03.904Z,15.15
2022-10-11T19:56:32.207Z,16.90
2022-10-11T19:58:59.411Z,15.57
2022-10-11T20:01:30.869Z,15.43
2022-10-11T20:04:01.062Z,14.73
2022-10-11T20:06:28.327Z,13.40
2022-10-11T20:09:16.644Z,13.30
2022-10-11T20:11:42.279Z,21.17
2022-10-11T20:14:08.835Z,15.82
2022-10-11T20:16:35.498Z,16.10
2022-10-11T20:19:01.989Z,15.55
2022-10-11T20:21:29.948Z,17.65
2022-10-11T20:23:59.931Z,18.35
2022-10-11T20:26:27.648Z,17.90
2022-10-11T20:28:56.151Z,17.95
2022-10-11T20:31:22.773Z,14.40
2022-10-11T20:33:49.548Z,16.30
2022-10-11T20:36:18.491Z,17.00
2022-10-11T20:38:46.551Z,17.73
2022-10-11T20:41:17.125Z,17.67
2022-10-11T20:43:44.552Z,17.13
2022-10-11T20:46:14.363Z,19.77
2022-10-11T20:48:41.420Z,16.92
2022-10-11T20:51:10.216Z,17.80
2022-10-11T20:53:38.362Z,18.15
2022-10-11T20:56:08.435Z,14.77
2022-10-11T20:58:34.971Z,13.70
2022-10-11T21:01:08.835Z,12.20
2022-10-11T21:03:35.414Z,13.57
2022-10-11T21:06:05.457Z,13.90
2022-10-11T21:08:32.226Z,14.60
2022-10-11T21:11:01.226Z,15.48
2022-10-11T21:13:27.761Z,17.05
2022-10-11T21:15:54.758Z,16.65
2022-10-11T21:18:21.279Z,15.73
2022-10-11T21:20:47.857Z,13.57
2022-10-11T21:23:14.785Z,13.07
2022-10-11T21:25:41.278Z,15.90
2022-10-11T21:28:07.822Z,15.43
2022-10-11T21:30:34.402Z,16.95
2022-10-11T21:33:03.173Z,16.67
2022-10-11T21:35:30.584Z,17.58
2022-10-11T21:37:59.906Z,17.00
2022-10-11T21:40:26.446Z,17.70
2022-10-11T21:42:52.963Z,18.08
2022-10-11T21:45:19.478Z,15.55
2022-10-11T21:47:46.401Z,14.60
2022-10-11T21:50:13.088Z,17.42
2022-10-11T21:52:39.609Z,15.20
2022-10-11T21:55:06.276Z,18.98
2022-10-11T21:57:32.875Z,14.82
2022-10-11T22:00:01.939Z,11.73
2022-10-11T22:02:28.448Z,15.55
2022-10-11T22:04:55.010Z,11.57
2022-10-11T22:07:21.567Z,12.18
2022-10-11T22:09:48.175Z,17.88
2022-10-11T22:12:14.687Z,14.05
2022-10-11T22:14:41.415Z,11.70
2022-10-11T22:17:08.050Z,14.25
2022-10-11T22:19:34.546Z,12.27
2022-10-11T22:22:01.100Z,14.52
2022-10-11T22:24:29.022Z,14.77
2022-10-11T22:26:55.594Z,15.77
2022-10-11T22:29:22.148Z,17.73
2022-10-11T22:31:48.799Z,22.95
2022-10-11T22:34:15.328Z,20.25
2022-10-11T22:36:41.839Z,23.08
2022-10-11T22:39:08.358Z,20.27
2022-10-11T22:41:35.647Z,16.23
2022-10-11T22:44:02.383Z,16.58
2022-10-11T22:46:29.256Z,13.15
2022-10-11T22:48:56.073Z,17.67
2022-10-11T22:51:22.598Z,15.98
2022-10-11T22:53:49.146Z,17.23
2022-10-11T22:56:15.662Z,15.55
2022-10-11T22:58:42.166Z,14.27
2022-10-11T23:01:14.238Z,14.27
2022-10-11T23:03:40.840Z,14.40
2022-10-11T23:06:07.926Z,15.93
2022-10-11T23:08:34.561Z,20.13
2022-10-11T23:11:07.385Z,19.52
2022-10-11T23:13:34.838Z,16.75
2022-10-11T23:16:08.772Z,18.38
2022-10-11T23:18:35.624Z,18.15
2022-10-11T23:21:02.590Z,14.93
2022-10-11T23:23:29.413Z,16.80
2022-10-11T23:26:12.932Z,14.85
2022-10-11T23:28:39.910Z,15.35
2022-10-11T23:31:17.600Z,14.35
2022-10-11T23:33:45.337Z,14.43
2022-10-11T23:36:20.541Z,17.73
2022-10-11T23:38:54.868Z,14.68
2022-10-11T23:41:29.322Z,19.50
2022-10-11T23:46:22.891Z,17.73
2022-10-11T23:48:49.436Z,17.83
2022-10-11T23:51:16.322Z,15.50
2022-10-11T23:53:42.841Z,15.13
2022-10-11T23:56:10.872Z,18.60
2022-10-11T23:58:40.029Z,15.10
